Аэропорт: Талаги. Архангельск

ICAO: ULAA

METAR:
2021-04-21 19:00:00
ULAA 211900Z 18009G14MPS 130V210 9999 BKN022 08/M01 Q1008 R08/290060 NOSIG RMK QFE755/1006
METAR:
2021-04-21 17:00:00
TAF ULAA 211700Z 2118/2218 15003G09MPS 9999 BKN020 TEMPO 2118/2121 13005G14MPS 6000 BKN017 TEMPO 2121/2206 17005G12MPS 3000 -SHRASN BKN006 BKN011CB TEMPO 2206/2215 21005G12MPS 6000 -SHRA BKN016CB